createdAt,value
2023-11-22T00:02:12.961Z,100808.06
2023-11-22T00:04:43.538Z,100805.27
2023-11-22T00:07:14.294Z,100799.94
2023-11-22T00:09:44.777Z,100799.97
2023-11-22T00:12:18.321Z,100801.52
2023-11-22T00:14:49.237Z,100806.21
2023-11-22T00:17:19.790Z,100806.02
2023-11-22T00:19:50.737Z,100810.02
2023-11-22T00:22:21.318Z,100812.91
2023-11-22T00:24:52.385Z,100817.71
2023-11-22T00:27:23.146Z,100827.55
2023-11-22T00:29:53.632Z,100827.14
2023-11-22T00:32:24.223Z,100832.08
2023-11-22T00:34:55.063Z,100836.16
2023-11-22T00:37:25.565Z,100844.10
2023-11-22T00:39:56.036Z,100852.76
2023-11-22T00:42:26.476Z,100863.02
2023-11-22T00:44:56.935Z,100865.50
2023-11-22T00:47:27.488Z,100867.21
2023-11-22T00:49:58.125Z,100863.45
2023-11-22T00:52:28.616Z,100865.49
2023-11-22T00:54:59.368Z,100863.95
2023-11-22T00:57:31.486Z,100862.34
2023-11-22T01:00:04.021Z,100865.57
2023-11-22T01:02:34.568Z,100862.26
2023-11-22T01:05:05.239Z,100864.61
2023-11-22T01:07:35.699Z,100865.64
2023-11-22T01:10:07.336Z,100861.43
2023-11-22T01:12:37.845Z,100863.59
2023-11-22T01:15:10.632Z,100868.67
2023-11-22T01:17:41.220Z,100876.21
2023-11-22T01:20:15.091Z,100876.48
2023-11-22T01:22:46.231Z,100877.88
2023-11-22T01:25:17.166Z,100876.96
2023-11-22T01:27:47.654Z,100878.35
2023-11-22T01:30:19.640Z,100880.76
2023-11-22T01:32:51.117Z,100884.40
2023-11-22T01:35:21.729Z,100883.30
2023-11-22T01:37:52.440Z,100880.15
2023-11-22T01:40:23.827Z,100884.44
2023-11-22T01:42:55.856Z,100880.58
2023-11-22T01:45:26.318Z,100881.45
2023-11-22T01:47:57.631Z,100883.09
2023-11-22T01:50:28.665Z,100884.70
2023-11-22T01:53:00.019Z,100890.85
2023-11-22T01:55:31.648Z,100894.57
2023-11-22T01:58:03.445Z,100897.15
2023-11-22T02:00:38.251Z,100897.31
2023-11-22T02:03:08.855Z,100898.16
2023-11-22T02:05:44.411Z,100898.14
2023-11-22T02:08:15.724Z,100902.67
2023-11-22T02:10:50.852Z,100912.05
2023-11-22T02:13:21.888Z,100922.84
2023-11-22T02:15:53.768Z,100926.11
2023-11-22T02:18:25.252Z,100928.70
2023-11-22T02:20:55.832Z,100931.23
2023-11-22T02:23:26.332Z,100935.07
2023-11-22T02:25:56.844Z,100940.09
2023-11-22T02:28:27.503Z,100940.71
2023-11-22T02:30:58.006Z,100942.18
2023-11-22T02:33:28.578Z,100945.94
2023-11-22T02:35:59.089Z,100952.73
2023-11-22T02:38:29.711Z,100951.31
2023-11-22T02:41:00.292Z,100953.29
2023-11-22T02:43:30.787Z,100957.98
2023-11-22T02:46:01.309Z,100958.77
2023-11-22T02:48:31.776Z,100962.39
2023-11-22T02:51:02.282Z,100965.73
2023-11-22T02:53:33.438Z,100966.59
2023-11-22T02:56:04.644Z,100972.73
2023-11-22T02:58:35.160Z,100975.66
2023-11-22T03:01:05.763Z,100978.04
2023-11-22T03:03:36.535Z,100983.52
2023-11-22T03:06:07.679Z,100985.94
2023-11-22T03:08:38.629Z,100996.18
2023-11-22T03:11:09.209Z,101005.79
2023-11-22T03:13:39.712Z,101010.84
2023-11-22T03:16:11.965Z,101012.75
2023-11-22T03:18:40.931Z,101020.05
2023-11-22T03:21:11.497Z,101025.84
2023-11-22T03:23:43.436Z,101030.21
2023-11-22T03:26:14.387Z,101035.29
2023-11-22T03:28:45.214Z,101042.31
2023-11-22T03:31:16.877Z,101050.38
2023-11-22T03:33:47.738Z,101054.84
2023-11-22T03:36:18.219Z,101052.28
2023-11-22T03:38:48.716Z,101052.45
2023-11-22T03:41:19.640Z,101057.80
2023-11-22T03:43:50.114Z,101061.62
2023-11-22T03:46:20.690Z,101064.89
2023-11-22T03:48:51.133Z,101075.11
2023-11-22T03:51:21.587Z,101080.23
2023-11-22T03:53:52.044Z,101082.52
2023-11-22T03:56:22.660Z,101081.48
2023-11-22T03:58:53.393Z,101080.38
2023-11-22T04:01:24.235Z,101082.55
2023-11-22T04:03:55.213Z,101089.46
2023-11-22T04:06:25.884Z,101091.46
2023-11-22T04:08:56.337Z,101088.91
2023-11-22T04:11:29.412Z,101090.83
2023-11-22T04:14:00.021Z,101093.31
2023-11-22T04:16:31.095Z,101097.02
2023-11-22T04:19:02.147Z,101105.50
2023-11-22T04:21:33.122Z,101108.60
2023-11-22T04:24:03.699Z,101104.45
2023-11-22T04:26:34.188Z,101099.42
2023-11-22T04:29:05.593Z,101102.73
2023-11-22T04:31:36.276Z,101099.19
2023-11-22T04:34:06.904Z,101104.34
2023-11-22T04:36:38.326Z,101114.41
2023-11-22T04:39:09.348Z,101115.11
2023-11-22T04:41:39.848Z,101115.96
2023-11-22T04:44:10.492Z,101121.83
2023-11-22T04:46:41.106Z,101120.92
2023-11-22T04:49:11.797Z,101128.55
2023-11-22T04:51:44.395Z,101135.13
2023-11-22T04:54:15.322Z,101135.27
2023-11-22T04:56:45.856Z,101134.29
2023-11-22T04:59:16.833Z,101140.47
2023-11-22T05:01:47.434Z,101138.61
2023-11-22T05:04:19.646Z,101128.92
2023-11-22T05:06:50.439Z,101132.40
2023-11-22T05:09:21.087Z,101144.15
2023-11-22T05:11:53.252Z,101149.61
2023-11-22T05:14:25.316Z,101163.53
2023-11-22T05:16:56.368Z,101170.20
2023-11-22T05:19:26.897Z,101170.88
2023-11-22T05:21:57.401Z,101178.85
2023-11-22T05:24:27.859Z,101190.71
2023-11-22T05:26:58.351Z,101190.72
2023-11-22T05:29:34.703Z,101199.05
2023-11-22T05:32:11.062Z,101200.02
2023-11-22T05:34:41.802Z,101197.79
2023-11-22T05:37:12.275Z,101212.61
2023-11-22T05:39:42.913Z,101225.77
2023-11-22T05:42:13.471Z,101232.65
2023-11-22T05:44:44.080Z,101239.75
2023-11-22T05:47:14.942Z,101240.42
2023-11-22T05:49:45.532Z,101244.30
2023-11-22T05:52:16.066Z,101242.36
2023-11-22T05:54:46.551Z,101245.41
2023-11-22T05:57:17.355Z,101252.73
2023-11-22T05:59:48.866Z,101258.70
2023-11-22T06:02:19.382Z,101270.55
2023-11-22T06:04:49.974Z,101280.13
2023-11-22T06:07:20.655Z,101283.04
2023-11-22T06:09:51.137Z,101280.52
2023-11-22T06:12:21.704Z,101282.50
2023-11-22T06:14:52.183Z,101295.36
2023-11-22T06:17:22.625Z,101302.04
2023-11-22T06:19:53.106Z,101295.42
2023-11-22T06:22:23.589Z,101285.92
2023-11-22T06:24:54.039Z,101285.90
2023-11-22T06:27:24.557Z,101291.14
2023-11-22T06:29:55.118Z,101295.26
2023-11-22T06:32:25.701Z,101293.36
2023-11-22T06:34:56.226Z,101295.09
2023-11-22T06:37:27.273Z,101302.39
2023-11-22T06:39:58.759Z,101305.81
2023-11-22T06:42:29.464Z,101306.36
2023-11-22T06:45:01.707Z,101305.35
2023-11-22T06:47:32.859Z,101303.59
2023-11-22T06:50:05.322Z,101304.68
2023-11-22T06:52:34.470Z,101313.70
2023-11-22T06:55:05.668Z,101319.08
2023-11-22T06:57:36.179Z,101321.48
2023-11-22T07:00:10.588Z,101329.58
2023-11-22T07:02:41.910Z,101336.30
2023-11-22T07:05:12.949Z,101343.92
2023-11-22T07:07:43.582Z,101347.42
2023-11-22T07:10:15.117Z,101344.72
2023-11-22T07:12:45.632Z,101340.89
2023-11-22T07:15:16.162Z,101344.50
2023-11-22T07:17:47.398Z,101343.91
2023-11-22T07:20:18.458Z,101345.34
2023-11-22T07:22:56.236Z,101347.83
2023-11-22T07:25:27.816Z,101353.36
2023-11-22T07:27:58.612Z,101354.21
2023-11-22T07:30:32.032Z,101351.81
2023-11-22T07:33:02.776Z,101353.09
2023-11-22T07:35:33.671Z,101350.02
2023-11-22T07:38:04.794Z,101343.57
2023-11-22T07:40:35.393Z,101340.86
2023-11-22T07:43:06.209Z,101338.81
2023-11-22T07:45:37.364Z,101337.35
2023-11-22T07:48:08.425Z,101343.00
2023-11-22T07:50:40.394Z,101351.30
2023-11-22T07:53:10.978Z,101362.20
2023-11-22T07:55:43.080Z,101365.92
2023-11-22T07:58:13.726Z,101370.85
2023-11-22T08:00:44.432Z,101378.36
2023-11-22T08:03:16.922Z,101379.78
2023-11-22T08:05:49.544Z,101391.56
2023-11-22T08:08:21.144Z,101404.05
2023-11-22T08:10:54.743Z,101410.67
2023-11-22T08:13:25.381Z,101415.26
2023-11-22T08:15:55.960Z,101414.29
2023-11-22T08:18:29.071Z,101412.83
2023-11-22T08:20:59.920Z,101422.08
2023-11-22T08:23:32.083Z,101431.64
2023-11-22T08:26:04.050Z,101433.60
2023-11-22T08:28:35.415Z,101434.64
2023-11-22T08:31:10.653Z,101439.22
2023-11-22T08:33:42.184Z,101432.65
2023-11-22T08:36:13.438Z,101432.37
2023-11-22T08:38:44.892Z,101433.48
2023-11-22T08:41:15.792Z,101425.19
2023-11-22T08:43:49.239Z,101419.92
2023-11-22T08:46:20.423Z,101412.11
2023-11-22T08:48:51.907Z,101403.11
2023-11-22T08:51:22.691Z,101402.28
2023-11-22T08:53:53.340Z,101400.77
2023-11-22T08:56:23.879Z,101401.15
2023-11-22T08:58:55.890Z,101406.27
2023-11-22T09:01:26.920Z,101402.13
2023-11-22T09:03:58.617Z,101412.69
2023-11-22T09:06:30.862Z,101427.46
2023-11-22T09:09:02.044Z,101429.73
2023-11-22T09:11:32.723Z,101416.22
2023-11-22T09:14:06.042Z,101406.05
2023-11-22T09:16:40.914Z,101404.92
2023-11-22T09:19:12.055Z,101403.16
2023-11-22T09:21:42.682Z,101409.84
2023-11-22T09:24:13.883Z,101410.52
2023-11-22T09:26:44.732Z,101406.39
2023-11-22T09:29:15.670Z,101402.33
2023-11-22T09:31:48.045Z,101403.91
2023-11-22T09:34:17.073Z,101408.54
2023-11-22T09:36:48.182Z,101404.09
2023-11-22T09:39:22.883Z,101398.33
2023-11-22T09:41:54.447Z,101396.80
2023-11-22T09:44:25.204Z,101391.79
2023-11-22T09:46:57.446Z,101384.73
2023-11-22T09:49:32.300Z,101392.40
2023-11-22T09:52:06.125Z,101394.33
2023-11-22T09:54:39.112Z,101405.21
2023-11-22T09:57:12.122Z,101411.93
2023-11-22T09:59:43.725Z,101410.69
2023-11-22T10:02:14.427Z,101406.95
2023-11-22T10:04:46.332Z,101403.73
2023-11-22T10:07:18.184Z,101412.00
2023-11-22T10:09:48.779Z,101421.29
2023-11-22T10:12:23.260Z,101419.27
2023-11-22T10:14:53.849Z,101417.95
2023-11-22T10:17:24.511Z,101408.92
2023-11-22T10:19:56.886Z,101410.39
2023-11-22T10:22:25.873Z,101410.38
2023-11-22T10:25:02.048Z,101412.06
2023-11-22T10:27:32.620Z,101410.58
2023-11-22T10:30:04.106Z,101414.08
2023-11-22T10:32:35.010Z,101416.64
2023-11-22T10:35:06.376Z,101422.48
2023-11-22T10:37:36.941Z,101428.80
2023-11-22T10:40:11.552Z,101430.96
2023-11-22T10:42:45.566Z,101436.29
2023-11-22T10:45:17.772Z,101441.61
2023-11-22T10:47:51.930Z,101450.73
2023-11-22T10:50:23.245Z,101462.05
2023-11-22T10:52:58.305Z,101470.84
2023-11-22T10:55:33.590Z,101477.60
2023-11-22T10:58:07.517Z,101482.73
2023-11-22T11:00:42.992Z,101481.08
2023-11-22T11:03:19.844Z,101487.48
2023-11-22T11:05:54.888Z,101488.11
2023-11-22T11:08:28.720Z,101484.89
2023-11-22T11:11:00.912Z,101478.16
2023-11-22T11:13:32.913Z,101474.78
2023-11-22T11:16:04.533Z,101469.30
2023-11-22T11:18:36.115Z,101467.00
2023-11-22T11:21:14.289Z,101464.72
2023-11-22T11:23:45.708Z,101456.25
2023-11-22T11:26:22.767Z,101451.05
2023-11-22T11:28:54.875Z,101448.33
2023-11-22T11:31:26.107Z,101449.91
2023-11-22T11:34:00.414Z,101441.81
2023-11-22T11:36:33.330Z,101437.20
2023-11-22T11:39:12.139Z,101449.34
2023-11-22T11:41:44.669Z,101452.67
2023-11-22T11:44:15.367Z,101454.39
2023-11-22T11:46:48.042Z,101448.61
2023-11-22T11:49:18.556Z,101443.36
2023-11-22T11:51:52.777Z,101452.36
2023-11-22T11:54:23.476Z,101460.34
2023-11-22T11:56:56.211Z,101467.86
2023-11-22T11:59:27.534Z,101471.48
2023-11-22T12:01:59.050Z,101473.79
2023-11-22T12:04:29.712Z,101475.69
2023-11-22T12:07:00.708Z,101473.59
2023-11-22T12:09:31.780Z,101474.20
2023-11-22T12:12:05.146Z,101480.56
2023-11-22T12:14:35.836Z,101482.26
2023-11-22T12:17:09.154Z,101485.63
2023-11-22T12:19:39.683Z,101483.77
2023-11-22T12:22:10.853Z,101478.16
2023-11-22T12:24:41.384Z,101480.62
2023-11-22T12:27:14.260Z,101484.94
2023-11-22T12:29:44.815Z,101485.20
2023-11-22T12:32:18.726Z,101490.92
2023-11-22T12:34:49.807Z,101486.35
2023-11-22T12:37:22.944Z,101482.21
2023-11-22T12:39:53.686Z,101478.45
2023-11-22T12:42:27.930Z,101480.16
2023-11-22T12:44:59.297Z,101482.83
2023-11-22T12:47:37.406Z,101483.45
2023-11-22T12:50:10.702Z,101481.80
2023-11-22T12:52:41.362Z,101484.86
2023-11-22T12:55:12.114Z,101480.88
2023-11-22T12:57:45.535Z,101478.81
2023-11-22T13:00:18.191Z,101475.54
2023-11-22T13:02:56.676Z,101476.02
2023-11-22T13:05:33.950Z,101477.35
2023-11-22T13:08:04.976Z,101481.31
2023-11-22T13:10:36.805Z,101479.39
2023-11-22T13:13:09.906Z,101480.05
2023-11-22T13:15:41.467Z,101478.98
2023-11-22T13:18:13.453Z,101481.02
2023-11-22T13:20:44.385Z,101484.08
2023-11-22T13:23:15.935Z,101480.86
2023-11-22T13:25:47.357Z,101484.89
2023-11-22T13:28:18.452Z,101485.27
2023-11-22T13:30:50.272Z,101483.55
2023-11-22T13:33:20.871Z,101484.17
2023-11-22T13:35:52.423Z,101480.61
2023-11-22T13:38:23.275Z,101469.67
2023-11-22T13:40:53.854Z,101466.45
2023-11-22T13:43:24.503Z,101466.08
2023-11-22T13:45:55.007Z,101458.39
2023-11-22T13:48:26.104Z,101452.10
2023-11-22T13:51:01.104Z,101445.16
2023-11-22T13:53:35.634Z,101450.25
2023-11-22T13:56:10.236Z,101441.77
2023-11-22T13:58:40.979Z,101432.73
2023-11-22T14:01:16.547Z,101439.59
2023-11-22T14:03:47.208Z,101450.80
2023-11-22T14:06:18.371Z,101460.02
2023-11-22T14:08:48.989Z,101466.02
2023-11-22T14:11:19.606Z,101468.98
2023-11-22T14:13:50.122Z,101474.06
2023-11-22T14:16:20.691Z,101485.23
2023-11-22T14:18:51.166Z,101483.80
2023-11-22T14:21:21.615Z,101492.96
2023-11-22T14:23:53.377Z,101495.39
2023-11-22T14:26:24.891Z,101489.20
2023-11-22T14:28:55.524Z,101470.72
2023-11-22T14:31:26.630Z,101460.96
2023-11-22T14:33:58.168Z,101459.36
2023-11-22T14:36:28.716Z,101451.75
2023-11-22T14:38:59.333Z,101436.75
2023-11-22T14:41:30.820Z,101433.59
2023-11-22T14:44:01.376Z,101439.73
2023-11-22T14:46:31.930Z,101440.23
2023-11-22T14:49:02.686Z,101449.86
2023-11-22T14:51:34.869Z,101463.95
2023-11-22T14:54:05.516Z,101467.80
2023-11-22T14:56:36.223Z,101469.39
2023-11-22T14:59:07.441Z,101472.55
2023-11-22T15:01:38.745Z,101476.63
2023-11-22T15:04:10.806Z,101478.47
2023-11-22T15:06:41.398Z,101482.35
2023-11-22T15:09:13.411Z,101470.23
2023-11-22T15:11:44.450Z,101450.59
2023-11-22T15:14:15.027Z,101431.67
2023-11-22T15:16:45.577Z,101408.70
2023-11-22T15:19:16.107Z,101404.01
2023-11-22T15:21:46.613Z,101411.21
2023-11-22T15:24:17.238Z,101417.96
2023-11-22T15:26:48.210Z,101424.66
2023-11-22T15:29:18.797Z,101432.05
2023-11-22T15:31:49.521Z,101443.11
2023-11-22T15:34:20.110Z,101452.23
2023-11-22T15:36:50.610Z,101459.67
2023-11-22T15:39:23.416Z,101467.61
2023-11-22T15:41:54.794Z,101469.36
2023-11-22T15:44:25.286Z,101468.52
2023-11-22T15:46:55.793Z,101470.21
2023-11-22T15:49:26.335Z,101477.52
2023-11-22T15:51:57.191Z,101473.23
2023-11-22T15:54:27.925Z,101480.18
2023-11-22T15:56:58.453Z,101474.58
2023-11-22T15:59:28.979Z,101481.79
2023-11-22T16:01:59.555Z,101495.66
2023-11-22T16:04:30.339Z,101491.59
2023-11-22T16:07:00.779Z,101484.46
2023-11-22T16:09:31.324Z,101484.39
2023-11-22T16:12:01.792Z,101491.70
2023-11-22T16:14:33.519Z,101497.21
2023-11-22T16:17:05.871Z,101498.45
2023-11-22T16:19:36.542Z,101489.77
2023-11-22T16:22:07.448Z,101489.73
2023-11-22T16:24:38.012Z,101487.80
2023-11-22T16:27:08.706Z,101484.36
2023-11-22T16:29:39.306Z,101491.23
2023-11-22T16:32:10.050Z,101504.44
2023-11-22T16:34:40.506Z,101507.42
2023-11-22T16:37:10.954Z,101506.91
2023-11-22T16:39:41.915Z,101506.85
2023-11-22T16:42:12.634Z,101505.77
2023-11-22T16:44:44.514Z,101502.91
2023-11-22T16:47:17.053Z,101486.09
2023-11-22T16:49:48.803Z,101490.72
2023-11-22T16:52:19.959Z,101494.63
2023-11-22T16:54:51.804Z,101490.55
2023-11-22T16:57:22.258Z,101484.20
2023-11-22T16:59:52.863Z,101481.06
2023-11-22T17:02:23.832Z,101480.98
2023-11-22T17:04:56.443Z,101481.13
2023-11-22T17:07:27.062Z,101480.84
2023-11-22T17:09:57.591Z,101480.96
2023-11-22T17:12:30.109Z,101478.89
2023-11-22T17:15:00.663Z,101486.70
2023-11-22T17:17:31.278Z,101500.56
2023-11-22T17:20:01.856Z,101504.55
2023-11-22T17:22:32.394Z,101505.41
2023-11-22T17:25:09.936Z,101501.38
2023-11-22T17:27:49.008Z,101510.08
2023-11-22T17:30:25.694Z,101516.73
2023-11-22T17:32:56.983Z,101503.67
2023-11-22T17:35:28.310Z,101486.41
2023-11-22T17:38:01.908Z,101472.58
2023-11-22T17:40:32.951Z,101476.30
2023-11-22T17:43:03.696Z,101485.72
2023-11-22T17:45:35.012Z,101489.26
2023-11-22T17:48:06.055Z,101479.74
2023-11-22T17:50:36.854Z,101472.75
2023-11-22T17:53:07.661Z,101468.84
2023-11-22T17:55:38.115Z,101452.53
2023-11-22T17:58:09.166Z,101454.05
2023-11-22T18:00:39.699Z,101450.48
2023-11-22T18:03:10.951Z,101436.02
2023-11-22T18:05:42.987Z,101453.98
2023-11-22T18:08:15.846Z,101451.83
2023-11-22T18:10:47.169Z,101450.33
2023-11-22T18:13:17.772Z,101462.80
2023-11-22T18:15:48.320Z,101455.51
2023-11-22T18:18:19.669Z,101442.68
2023-11-22T18:20:50.259Z,101446.29
2023-11-22T18:23:20.777Z,101441.81
2023-11-22T18:25:51.517Z,101433.13
2023-11-22T18:28:23.520Z,101421.48
2023-11-22T18:30:54.206Z,101417.34
2023-11-22T18:33:25.465Z,101411.45
2023-11-22T18:35:58.353Z,101406.80
2023-11-22T18:38:28.863Z,101420.46
2023-11-22T18:41:01.381Z,101422.19
2023-11-22T18:43:31.930Z,101422.15
2023-11-22T18:46:04.895Z,101428.39
2023-11-22T18:48:35.731Z,101441.56
2023-11-22T18:51:06.643Z,101435.87
2023-11-22T18:53:37.284Z,101429.91
2023-11-22T18:56:08.809Z,101422.65
2023-11-22T18:58:39.569Z,101405.70
2023-11-22T19:01:10.059Z,101404.96
2023-11-22T19:03:40.548Z,101402.05
2023-11-22T19:06:11.855Z,101392.05
2023-11-22T19:08:42.382Z,101390.79
2023-11-22T19:11:12.920Z,101389.73
2023-11-22T19:13:43.381Z,101379.57
2023-11-22T19:16:13.934Z,101380.77
2023-11-22T19:18:44.520Z,101374.73
2023-11-22T19:21:18.610Z,101362.50
2023-11-22T19:23:50.192Z,101346.00
2023-11-22T19:26:25.117Z,101348.02
2023-11-22T19:28:55.670Z,101341.06
2023-11-22T19:31:26.637Z,101337.60
2023-11-22T19:33:57.612Z,101352.23
2023-11-22T19:36:30.400Z,101348.01
2023-11-22T19:39:00.969Z,101331.13
2023-11-22T19:41:31.483Z,101320.55
2023-11-22T19:44:01.986Z,101321.71
2023-11-22T19:46:32.493Z,101316.10
2023-11-22T19:49:04.874Z,101307.55
2023-11-22T19:51:34.450Z,101305.59
2023-11-22T19:54:05.120Z,101294.42
2023-11-22T19:56:36.480Z,101287.95
2023-11-22T19:59:07.066Z,101291.84
2023-11-22T20:01:37.672Z,101285.58
2023-11-22T20:04:08.386Z,101287.16
2023-11-22T20:06:39.187Z,101288.98
2023-11-22T20:09:10.703Z,101291.02
2023-11-22T20:11:41.296Z,101294.34
2023-11-22T20:14:11.849Z,101299.95
2023-11-22T20:16:42.443Z,101285.82
2023-11-22T20:19:13.023Z,101278.27
2023-11-22T20:21:44.621Z,101276.33
2023-11-22T20:24:15.214Z,101262.56
2023-11-22T20:26:47.340Z,101255.58
2023-11-22T20:29:17.805Z,101250.60
2023-11-22T20:31:48.818Z,101254.92
2023-11-22T20:34:19.456Z,101254.69
2023-11-22T20:36:50.999Z,101249.60
2023-11-22T20:39:21.982Z,101244.65
2023-11-22T20:41:52.482Z,101257.75
2023-11-22T20:44:23.038Z,101260.89
2023-11-22T20:46:53.507Z,101257.27
2023-11-22T20:49:26.504Z,101252.52
2023-11-22T20:51:57.128Z,101259.24
2023-11-22T20:54:28.120Z,101260.69
2023-11-22T20:57:00.646Z,101254.78
2023-11-22T20:59:32.825Z,101252.84
2023-11-22T21:02:03.752Z,101248.23
2023-11-22T21:04:34.366Z,101239.23
2023-11-22T21:07:05.029Z,101231.74
2023-11-22T21:09:36.830Z,101231.73
2023-11-22T21:12:08.126Z,101210.36
2023-11-22T21:14:39.520Z,101198.29
2023-11-22T21:17:12.004Z,101196.71
2023-11-22T21:19:46.115Z,101207.03
2023-11-22T21:22:16.598Z,101208.41
2023-11-22T21:24:47.120Z,101207.40
2023-11-22T21:27:19.149Z,101197.45
2023-11-22T21:29:49.693Z,101189.39
2023-11-22T21:32:20.220Z,101175.96
2023-11-22T21:34:51.704Z,101172.21
2023-11-22T21:37:22.270Z,101180.56
2023-11-22T21:39:52.753Z,101184.37
2023-11-22T21:42:23.280Z,101189.63
2023-11-22T21:44:53.811Z,101179.59
2023-11-22T21:47:24.351Z,101173.45
2023-11-22T21:49:54.801Z,101177.88
2023-11-22T21:52:25.270Z,101174.94
2023-11-22T21:54:55.820Z,101168.15
2023-11-22T21:57:26.302Z,101170.21
2023-11-22T21:59:56.820Z,101172.77
2023-11-22T22:02:27.430Z,101173.48
2023-11-22T22:04:58.099Z,101175.02
2023-11-22T22:07:28.960Z,101172.33
2023-11-22T22:10:00.151Z,101171.27
2023-11-22T22:12:30.636Z,101172.45
2023-11-22T22:15:01.177Z,101167.92
2023-11-22T22:17:31.649Z,101166.45
2023-11-22T22:20:03.155Z,101159.82
2023-11-22T22:22:33.625Z,101147.99
2023-11-22T22:25:05.164Z,101143.64
2023-11-22T22:27:35.699Z,101142.05
2023-11-22T22:30:07.098Z,101137.63
2023-11-22T22:32:37.961Z,101137.31
2023-11-22T22:35:09.426Z,101125.25
2023-11-22T22:37:40.927Z,101110.08
2023-11-22T22:40:13.660Z,101104.64
2023-11-22T22:42:44.093Z,101104.63
2023-11-22T22:45:14.762Z,101094.83
2023-11-22T22:47:45.927Z,101082.05
2023-11-22T22:50:17.161Z,101081.73
2023-11-22T22:52:48.003Z,101077.97
2023-11-22T22:55:18.579Z,101070.66
2023-11-22T22:57:49.053Z,101058.74
2023-11-22T23:00:28.669Z,101045.64
2023-11-22T23:03:00.054Z,101050.52
2023-11-22T23:05:31.032Z,101042.46
2023-11-22T23:08:01.646Z,101033.43
2023-11-22T23:10:32.086Z,101043.29
2023-11-22T23:13:02.518Z,101048.58
2023-11-22T23:15:32.951Z,101050.99
2023-11-22T23:18:03.952Z,101043.27
2023-11-22T23:20:43.914Z,101033.58
2023-11-22T23:23:19.541Z,101031.12
2023-11-22T23:25:50.066Z,101022.09
2023-11-22T23:28:20.509Z,101015.11
2023-11-22T23:30:50.957Z,101015.27
2023-11-22T23:33:21.491Z,101009.05
2023-11-22T23:35:52.008Z,101006.16
2023-11-22T23:38:23.032Z,101007.73
2023-11-22T23:40:53.502Z,101001.52
2023-11-22T23:43:25.913Z,101000.96
2023-11-22T23:45:55.567Z,100999.60
2023-11-22T23:48:26.173Z,100997.55
2023-11-22T23:50:56.805Z,100990.46
2023-11-22T23:53:27.677Z,100983.30
2023-11-22T23:55:58.173Z,100971.83
2023-11-22T23:58:28.604Z,100962.84
